createdAt,value
2018-05-14T00:02:11.486Z,5.80
2018-05-14T00:04:38.094Z,3.87
2018-05-14T00:07:04.690Z,4.68
2018-05-14T00:09:31.290Z,5.30
2018-05-14T00:11:57.880Z,4.62
2018-05-14T00:14:24.488Z,5.53
2018-05-14T00:16:51.078Z,6.25
2018-05-14T00:19:17.676Z,6.65
2018-05-14T00:21:44.270Z,5.22
2018-05-14T00:24:10.883Z,5.30
2018-05-14T00:26:37.477Z,8.85
2018-05-14T00:29:04.056Z,5.87
2018-05-14T00:31:30.671Z,5.75
2018-05-14T00:33:57.274Z,4.68
2018-05-14T00:36:23.859Z,5.40
2018-05-14T00:38:50.470Z,5.85
2018-05-14T00:41:17.052Z,5.20
2018-05-14T00:43:43.650Z,5.07
2018-05-14T00:46:10.232Z,3.75
2018-05-14T00:48:36.836Z,5.35
2018-05-14T00:51:03.438Z,5.80
2018-05-14T00:53:30.028Z,5.00
2018-05-14T00:55:56.616Z,5.40
2018-05-14T00:58:23.277Z,7.28
2018-05-14T01:00:49.864Z,4.95
2018-05-14T01:03:16.454Z,5.50
2018-05-14T01:05:43.045Z,6.25
2018-05-14T01:08:09.647Z,4.00
2018-05-14T01:10:37.151Z,5.85
2018-05-14T01:13:03.797Z,4.60
2018-05-14T01:15:30.324Z,5.87
2018-05-14T01:17:56.913Z,6.07
2018-05-14T01:20:23.506Z,5.70
2018-05-14T01:22:50.102Z,4.82
2018-05-14T01:25:16.684Z,5.10
2018-05-14T01:27:43.394Z,4.95
2018-05-14T01:30:09.968Z,4.72
2018-05-14T01:32:36.583Z,5.00
2018-05-14T01:35:03.168Z,5.97
2018-05-14T01:37:29.766Z,4.87
2018-05-14T01:39:56.371Z,4.75
2018-05-14T01:42:22.962Z,5.05
2018-05-14T01:44:49.570Z,5.93
2018-05-14T01:47:16.148Z,5.20
2018-05-14T01:49:42.742Z,4.68
2018-05-14T01:52:09.342Z,5.18
2018-05-14T01:54:36.752Z,7.28
2018-05-14T01:57:03.350Z,6.05
2018-05-14T01:59:29.978Z,6.47
2018-05-14T02:01:56.567Z,5.78
2018-05-14T02:04:23.171Z,3.80
2018-05-14T02:06:49.860Z,6.10
2018-05-14T02:09:16.356Z,5.62
2018-05-14T02:11:42.953Z,5.37
2018-05-14T02:14:09.528Z,5.90
2018-05-14T02:16:36.625Z,5.45
2018-05-14T02:19:03.220Z,5.97
2018-05-14T02:21:30.638Z,5.70
2018-05-14T02:23:57.228Z,5.68
2018-05-14T02:26:23.831Z,5.47
2018-05-14T02:28:50.423Z,5.03
2018-05-14T02:31:16.996Z,5.47
2018-05-14T02:33:43.587Z,4.45
2018-05-14T02:36:10.173Z,5.28
2018-05-14T02:38:36.859Z,5.85
2018-05-14T02:41:03.448Z,5.75
2018-05-14T02:43:30.029Z,5.30
2018-05-14T02:45:56.635Z,4.68
2018-05-14T02:48:23.216Z,5.80
2018-05-14T02:50:49.815Z,7.12
2018-05-14T02:53:16.410Z,5.75
2018-05-14T02:55:43.002Z,5.57
2018-05-14T02:58:09.592Z,5.45
2018-05-14T03:00:36.174Z,5.15
2018-05-14T03:03:02.760Z,6.30
2018-05-14T03:05:29.371Z,5.30
2018-05-14T03:07:55.945Z,5.10
2018-05-14T03:10:22.635Z,5.62
2018-05-14T03:12:49.162Z,6.57
2018-05-14T03:15:15.755Z,6.57
2018-05-14T03:17:42.355Z,5.60
2018-05-14T03:20:08.941Z,5.72
2018-05-14T03:22:35.546Z,7.70
2018-05-14T03:25:02.151Z,5.85
2018-05-14T03:27:28.746Z,5.72
2018-05-14T03:29:55.331Z,5.57
2018-05-14T03:32:21.934Z,6.57
2018-05-14T03:34:49.039Z,6.03
2018-05-14T03:37:15.635Z,5.93
2018-05-14T03:39:42.231Z,8.15
2018-05-14T03:42:08.816Z,8.05
2018-05-14T03:44:35.911Z,7.18
2018-05-14T03:47:03.273Z,6.25
2018-05-14T03:49:29.864Z,6.75
2018-05-14T03:51:56.448Z,6.18
2018-05-14T03:54:23.064Z,5.05
2018-05-14T03:56:49.659Z,6.72
2018-05-14T03:59:22.182Z,5.80
2018-05-14T04:01:54.858Z,7.90
2018-05-14T04:04:27.412Z,7.20
2018-05-14T04:06:54.062Z,5.62
2018-05-14T04:09:20.652Z,6.57
2018-05-14T04:11:47.256Z,6.90
2018-05-14T04:14:13.861Z,8.80
2018-05-14T04:16:40.526Z,7.72
2018-05-14T04:19:07.069Z,4.85
2018-05-14T04:21:33.641Z,6.15
2018-05-14T04:24:00.230Z,4.85
2018-05-14T04:26:26.825Z,6.70
2018-05-14T04:28:53.419Z,6.60
2018-05-14T04:31:20.011Z,5.28
2018-05-14T04:33:46.600Z,7.70
2018-05-14T04:36:13.196Z,5.60
2018-05-14T04:38:39.802Z,6.40
2018-05-14T04:41:06.384Z,7.12
2018-05-14T04:43:32.973Z,5.32
2018-05-14T04:45:59.575Z,6.78
2018-05-14T04:48:26.178Z,6.80
2018-05-14T04:50:52.768Z,6.62
2018-05-14T04:53:19.352Z,4.78
2018-05-14T04:55:45.940Z,5.47
2018-05-14T04:58:12.538Z,7.75
2018-05-14T05:00:39.135Z,7.12
2018-05-14T05:03:05.721Z,5.85
2018-05-14T05:05:32.312Z,6.80
2018-05-14T05:07:58.907Z,5.85
2018-05-14T05:10:25.573Z,4.87
2018-05-14T05:12:52.093Z,6.18
2018-05-14T05:15:18.683Z,5.28
2018-05-14T05:17:45.279Z,5.07
2018-05-14T05:20:11.874Z,6.78
2018-05-14T05:22:38.470Z,5.78
2018-05-14T05:25:05.125Z,5.10
2018-05-14T05:27:31.653Z,7.28
2018-05-14T05:29:58.253Z,4.72
2018-05-14T05:32:24.846Z,5.50
2018-05-14T05:34:51.438Z,6.78
2018-05-14T05:37:18.029Z,6.37
2018-05-14T05:39:44.608Z,4.75
2018-05-14T05:42:11.206Z,5.55
2018-05-14T05:44:37.797Z,8.60
2018-05-14T05:47:04.384Z,7.10
2018-05-14T05:49:30.983Z,4.68
2018-05-14T05:51:57.582Z,7.43
2018-05-14T05:54:24.179Z,6.62
2018-05-14T05:56:50.770Z,4.55
2018-05-14T05:59:17.359Z,6.12
2018-05-14T06:01:43.954Z,5.00
2018-05-14T06:04:10.540Z,9.00
2018-05-14T06:06:37.138Z,5.60
2018-05-14T06:09:03.738Z,6.40
2018-05-14T06:11:31.034Z,6.82
2018-05-14T06:13:57.628Z,8.80
2018-05-14T06:16:24.231Z,7.20
2018-05-14T06:18:50.826Z,9.25
2018-05-14T06:21:17.426Z,7.15
2018-05-14T06:23:44.020Z,7.12
2018-05-14T06:26:10.643Z,5.60
2018-05-14T06:28:37.235Z,6.87
2018-05-14T06:31:03.838Z,7.53
2018-05-14T06:33:30.482Z,7.50
2018-05-14T06:35:57.074Z,6.43
2018-05-14T06:38:23.656Z,5.40
2018-05-14T06:40:50.254Z,6.03
2018-05-14T06:43:16.855Z,6.47
2018-05-14T06:45:43.454Z,5.65
2018-05-14T06:48:10.074Z,4.70
2018-05-14T06:50:36.638Z,5.07
2018-05-14T06:53:03.244Z,6.45
2018-05-14T06:55:30.227Z,6.60
2018-05-14T06:57:56.823Z,5.70
2018-05-14T07:00:23.469Z,6.60
2018-05-14T07:02:50.027Z,6.68
2018-05-14T07:05:16.604Z,6.62
2018-05-14T07:07:43.187Z,6.35
2018-05-14T07:10:09.783Z,7.12
2018-05-14T07:12:36.378Z,5.97
2018-05-14T07:15:02.964Z,6.20
2018-05-14T07:17:29.560Z,6.25
2018-05-14T07:19:56.162Z,6.62
2018-05-14T07:22:22.744Z,6.15
2018-05-14T07:24:49.356Z,6.65
2018-05-14T07:27:15.930Z,6.30
2018-05-14T07:29:42.516Z,5.35
2018-05-14T07:32:09.105Z,6.30
2018-05-14T07:34:36.412Z,7.03
2018-05-14T07:37:03.020Z,8.20
2018-05-14T07:39:29.605Z,6.57
2018-05-14T07:41:56.203Z,5.32
2018-05-14T07:44:22.794Z,6.10
2018-05-14T07:46:49.393Z,5.85
2018-05-14T07:49:15.995Z,5.75
2018-05-14T07:51:42.576Z,3.83
2018-05-14T07:54:09.199Z,7.03
2018-05-14T07:56:35.796Z,9.18
2018-05-14T07:59:02.900Z,6.12
2018-05-14T08:01:29.499Z,5.70
2018-05-14T08:03:56.084Z,5.70
2018-05-14T08:06:22.672Z,6.12
2018-05-14T08:08:49.297Z,4.72
2018-05-14T08:11:15.906Z,4.75
2018-05-14T08:13:42.950Z,6.40
2018-05-14T08:16:09.574Z,5.57
2018-05-14T08:18:37.022Z,5.80
2018-05-14T08:21:03.614Z,6.05
2018-05-14T08:23:30.297Z,6.25
2018-05-14T08:25:56.798Z,5.70
2018-05-14T08:28:23.379Z,4.37
2018-05-14T08:30:49.982Z,5.00
2018-05-14T08:33:16.579Z,4.37
2018-05-14T08:35:43.179Z,6.90
2018-05-14T08:38:09.782Z,3.55
2018-05-14T08:40:36.987Z,4.03
2018-05-14T08:43:03.564Z,5.20
2018-05-14T08:45:30.204Z,6.15
2018-05-14T08:47:56.825Z,4.95
2018-05-14T08:50:23.491Z,4.65
2018-05-14T08:52:50.080Z,5.85
2018-05-14T08:55:16.679Z,5.30
2018-05-14T08:57:43.387Z,5.07
2018-05-14T09:00:09.879Z,6.20
2018-05-14T09:02:38.272Z,5.12
2018-05-14T09:05:04.870Z,6.00
2018-05-14T09:07:31.470Z,5.70
2018-05-14T09:09:58.052Z,4.53
2018-05-14T09:12:24.645Z,4.95
2018-05-14T09:14:51.225Z,4.30
2018-05-14T09:17:17.827Z,4.30
2018-05-14T09:19:44.437Z,4.62
2018-05-14T09:22:11.800Z,4.50
2018-05-14T09:24:38.416Z,3.25
2018-05-14T09:27:04.995Z,3.92
2018-05-14T09:29:31.580Z,4.57
2018-05-14T09:31:58.168Z,3.90
2018-05-14T09:34:24.767Z,4.30
2018-05-14T09:36:51.362Z,3.83
2018-05-14T09:39:17.978Z,4.55
2018-05-14T09:41:44.569Z,5.05
2018-05-14T09:44:11.172Z,6.10
2018-05-14T09:46:37.770Z,4.72
2018-05-14T09:49:04.358Z,4.07
2018-05-14T09:51:30.948Z,5.43
2018-05-14T09:53:57.533Z,3.92
2018-05-14T09:56:24.127Z,4.43
2018-05-14T09:58:50.748Z,4.25
2018-05-14T10:01:17.338Z,6.05
2018-05-14T10:03:44.588Z,4.45
2018-05-14T10:06:15.194Z,5.00
2018-05-14T10:08:48.397Z,3.97
2018-05-14T10:11:14.991Z,3.50
2018-05-14T10:13:42.398Z,4.45
2018-05-14T10:16:12.047Z,3.75
2018-05-14T10:18:38.622Z,3.55
2018-05-14T10:21:05.223Z,3.12
2018-05-14T10:23:32.708Z,6.53
2018-05-14T10:26:02.068Z,7.35
2018-05-14T10:28:28.664Z,7.62
2018-05-14T10:30:55.256Z,5.50
2018-05-14T10:33:21.868Z,5.93
2018-05-14T10:35:48.448Z,5.43
2018-05-14T10:38:15.063Z,5.55
2018-05-14T10:40:41.654Z,4.57
2018-05-14T10:43:09.167Z,13.13
2018-05-14T10:45:35.844Z,9.82
2018-05-14T10:48:02.443Z,9.63
2018-05-14T10:50:29.041Z,11.93
2018-05-14T10:52:55.987Z,9.73
2018-05-14T10:55:22.592Z,10.35
2018-05-14T10:57:49.184Z,8.93
2018-05-14T11:00:15.799Z,10.40
2018-05-14T11:02:42.415Z,10.15
2018-05-14T11:05:09.022Z,10.30
2018-05-14T11:07:36.371Z,9.07
2018-05-14T11:10:02.988Z,12.10
2018-05-14T11:12:29.599Z,12.30
2018-05-14T11:14:56.198Z,10.90
2018-05-14T11:17:22.804Z,11.12
2018-05-14T11:19:49.416Z,10.35
2018-05-14T11:22:16.013Z,11.52
2018-05-14T11:24:42.622Z,8.48
2018-05-14T11:27:09.227Z,10.65
2018-05-14T11:29:35.824Z,13.02
2018-05-14T11:32:02.430Z,12.20
2018-05-14T11:34:29.937Z,11.05
2018-05-14T11:36:56.545Z,12.88
2018-05-14T11:39:23.163Z,10.32
2018-05-14T11:41:51.557Z,11.80
2018-05-14T11:44:18.137Z,9.85
2018-05-14T11:46:45.236Z,11.65
2018-05-14T11:49:11.833Z,10.50
2018-05-14T11:51:38.431Z,9.15
2018-05-14T11:54:05.038Z,10.05
2018-05-14T11:56:31.635Z,7.70
2018-05-14T11:58:58.228Z,7.50
2018-05-14T12:01:24.847Z,10.48
2018-05-14T12:03:51.456Z,10.45
2018-05-14T12:06:18.054Z,9.27
2018-05-14T12:08:44.654Z,9.18
2018-05-14T12:11:11.259Z,8.13
2018-05-14T12:13:37.862Z,8.25
2018-05-14T12:16:04.544Z,7.62
2018-05-14T12:18:31.043Z,7.82
2018-05-14T12:20:57.671Z,10.77
2018-05-14T12:23:24.272Z,8.57
2018-05-14T12:25:50.864Z,8.70
2018-05-14T12:28:17.463Z,7.53
2018-05-14T12:30:44.130Z,7.95
2018-05-14T12:33:10.742Z,8.90
2018-05-14T12:35:37.332Z,8.85
2018-05-14T12:38:04.498Z,9.75
2018-05-14T12:40:31.664Z,9.32
2018-05-14T12:42:58.710Z,7.10
2018-05-14T12:45:25.305Z,7.93
2018-05-14T12:47:51.943Z,7.30
2018-05-14T12:50:19.361Z,6.10
2018-05-14T12:52:46.016Z,7.85
2018-05-14T12:55:12.622Z,6.82
2018-05-14T12:57:39.455Z,6.90
2018-05-14T13:00:06.039Z,7.18
2018-05-14T13:02:32.634Z,7.12
2018-05-14T13:04:59.237Z,6.50
2018-05-14T13:07:29.998Z,5.75
2018-05-14T13:09:56.630Z,6.72
2018-05-14T13:12:23.277Z,5.65
2018-05-14T13:14:49.912Z,6.22
2018-05-14T13:17:16.757Z,5.55
2018-05-14T13:19:43.359Z,6.25
2018-05-14T13:22:10.103Z,6.53
2018-05-14T13:24:37.400Z,4.55
2018-05-14T13:27:05.345Z,5.62
2018-05-14T13:29:31.989Z,5.55
2018-05-14T13:31:58.632Z,9.15
2018-05-14T13:34:25.265Z,5.65
2018-05-14T13:36:52.997Z,5.82
2018-05-14T13:39:21.283Z,4.60
2018-05-14T13:41:47.872Z,6.20
2018-05-14T13:44:14.483Z,4.95
2018-05-14T13:46:41.092Z,5.18
2018-05-14T13:49:07.897Z,5.18
2018-05-14T13:51:34.644Z,5.43
2018-05-14T13:54:01.430Z,6.68
2018-05-14T13:56:28.099Z,4.57
2018-05-14T13:58:54.686Z,5.80
2018-05-14T14:01:21.276Z,4.95
2018-05-14T14:03:52.789Z,5.78
2018-05-14T14:06:20.105Z,4.47
2018-05-14T14:08:47.728Z,5.35
2018-05-14T14:11:14.317Z,5.20
2018-05-14T14:13:40.926Z,4.70
2018-05-14T14:45:46.852Z,4.00
2018-05-14T14:48:14.369Z,6.30
2018-05-14T14:50:40.969Z,5.57
2018-05-14T14:53:07.555Z,4.95
2018-05-14T14:55:34.154Z,4.68
2018-05-14T14:58:01.031Z,4.80
2018-05-14T15:00:28.149Z,4.28
2018-05-14T15:02:55.020Z,3.67
2018-05-14T15:05:21.951Z,4.45
2018-05-14T15:07:48.525Z,3.22
2018-05-14T15:10:15.823Z,3.70
2018-05-14T15:12:42.425Z,3.05
2018-05-14T15:15:09.298Z,4.60
2018-05-14T15:17:35.887Z,4.30
2018-05-14T15:20:04.653Z,4.00
2018-05-14T15:22:31.243Z,3.87
2018-05-14T15:24:58.879Z,2.97
2018-05-14T15:27:25.479Z,3.90
2018-05-14T15:29:52.259Z,4.65
2018-05-14T15:32:18.960Z,4.65
2018-05-14T15:34:45.651Z,5.00
2018-05-14T15:37:12.280Z,4.82
2018-05-14T15:39:38.903Z,4.47
2018-05-14T15:42:05.554Z,4.32
2018-05-14T15:44:32.165Z,3.45
2018-05-14T15:47:00.331Z,4.22
2018-05-14T15:49:27.213Z,4.20
2018-05-14T15:51:54.890Z,3.12
2018-05-14T15:57:15.489Z,3.70
2018-05-14T16:00:02.677Z,3.92
2018-05-14T16:02:40.162Z,3.67
2018-05-14T16:05:10.139Z,3.58
2018-05-14T16:07:40.417Z,5.00
2018-05-14T16:10:07.684Z,4.12
2018-05-14T16:12:34.336Z,4.25
2018-05-14T16:15:00.934Z,5.07
2018-05-14T16:17:27.597Z,3.50
2018-05-14T16:19:54.278Z,3.53
2018-05-14T16:22:20.905Z,4.65
2018-05-14T16:24:47.606Z,4.03
2018-05-14T16:27:14.210Z,3.85
2018-05-14T16:29:40.927Z,3.45
2018-05-14T16:32:07.597Z,3.75
2018-05-14T16:34:34.216Z,3.47
2018-05-14T16:37:00.917Z,3.42
2018-05-14T16:39:27.562Z,4.43
2018-05-14T16:41:54.194Z,4.07
2018-05-14T16:44:20.879Z,4.35
2018-05-14T16:46:47.485Z,3.33
2018-05-14T16:49:14.118Z,6.30
2018-05-14T16:51:40.863Z,27.05
2018-05-14T16:54:07.645Z,13.88
2018-05-14T16:56:34.295Z,11.12
2018-05-14T16:59:00.990Z,12.10
2018-05-14T17:01:27.609Z,9.30
2018-05-14T17:03:54.228Z,10.73
2018-05-14T17:06:20.827Z,9.88
2018-05-14T17:08:47.418Z,8.85
2018-05-14T17:11:14.012Z,7.87
2018-05-14T17:13:40.625Z,10.13
2018-05-14T17:16:07.238Z,7.68
2018-05-14T17:18:33.856Z,7.90
2018-05-14T17:21:00.451Z,6.30
2018-05-14T17:23:27.665Z,7.78
2018-05-14T17:25:54.252Z,6.90
2018-05-14T17:28:20.865Z,6.75
2018-05-14T17:30:47.445Z,6.62
2018-05-14T17:33:14.033Z,5.62
2018-05-14T17:35:40.637Z,6.50
2018-05-14T17:38:07.304Z,5.78
2018-05-14T17:40:33.906Z,6.75
2018-05-14T17:43:00.494Z,4.57
2018-05-14T17:45:27.100Z,4.93
2018-05-14T17:47:53.702Z,5.70
2018-05-14T17:50:20.295Z,4.35
2018-05-14T17:52:46.902Z,4.50
2018-05-14T17:55:13.504Z,5.22
2018-05-14T17:57:40.119Z,5.80
2018-05-14T18:00:06.934Z,5.57
2018-05-14T18:02:33.531Z,4.80
2018-05-14T18:05:00.137Z,6.03
2018-05-14T18:07:26.712Z,5.20
2018-05-14T18:09:53.307Z,4.60
2018-05-14T18:12:19.929Z,7.22
2018-05-14T18:14:46.518Z,5.30
2018-05-14T18:17:13.105Z,6.57
2018-05-14T18:19:55.477Z,5.68
2018-05-14T18:22:25.980Z,6.95
2018-05-14T18:24:58.388Z,7.00
2018-05-14T18:27:31.057Z,5.70
2018-05-14T18:30:13.321Z,6.43
2018-05-14T18:32:39.934Z,6.55
2018-05-14T18:35:12.386Z,7.68
2018-05-14T18:37:38.977Z,6.97
2018-05-14T18:40:05.580Z,7.55
2018-05-14T18:42:32.168Z,7.28
2018-05-14T18:44:58.764Z,8.80
2018-05-14T18:47:25.372Z,6.90
2018-05-14T18:49:52.143Z,7.87
2018-05-14T18:52:18.734Z,7.78
2018-05-14T18:54:45.328Z,7.35
2018-05-14T18:57:11.957Z,7.28
2018-05-14T18:59:40.296Z,6.57
2018-05-14T19:02:06.903Z,7.47
2018-05-14T19:04:33.498Z,7.10
2018-05-14T19:07:00.187Z,5.43
2018-05-14T19:09:26.805Z,6.62
2018-05-14T19:11:53.473Z,5.85
2018-05-14T19:14:20.077Z,6.37
2018-05-14T19:16:52.528Z,5.57
2018-05-14T19:19:19.128Z,7.50
2018-05-14T19:21:45.942Z,6.85
2018-05-14T19:24:12.540Z,9.80
2018-05-14T19:26:39.160Z,7.50
2018-05-14T19:29:11.630Z,6.35
2018-05-14T19:31:38.232Z,5.07
2018-05-14T19:34:10.870Z,8.05
2018-05-14T19:36:37.465Z,6.65
2018-05-14T19:39:04.084Z,4.95
2018-05-14T19:41:30.766Z,7.20
2018-05-14T19:43:57.301Z,5.93
2018-05-14T19:46:23.903Z,6.00
2018-05-14T19:48:50.509Z,7.53
2018-05-14T19:51:17.115Z,5.87
2018-05-14T19:53:43.703Z,4.80
2018-05-14T19:56:10.302Z,6.15
2018-05-14T19:58:36.904Z,4.15
2018-05-14T20:01:03.959Z,3.45
2018-05-14T20:03:30.540Z,4.82
2018-05-14T20:05:57.127Z,4.60
2018-05-14T20:08:23.727Z,4.40
2018-05-14T20:10:50.322Z,4.35
2018-05-14T20:13:16.926Z,5.40
2018-05-14T20:15:43.534Z,3.42
2018-05-14T20:18:10.120Z,4.30
2018-05-14T20:20:36.711Z,5.37
2018-05-14T20:23:03.314Z,3.70
2018-05-14T20:25:29.918Z,5.45
2018-05-14T20:27:56.523Z,4.55
2018-05-14T20:30:23.106Z,4.45
2018-05-14T20:32:49.696Z,4.97
2018-05-14T20:35:16.303Z,5.00
2018-05-14T20:37:42.915Z,4.40
2018-05-14T20:40:09.516Z,4.87
2018-05-14T20:42:36.096Z,4.93
2018-05-14T20:45:02.708Z,4.12
2018-05-14T20:47:29.308Z,3.92
2018-05-14T20:49:55.910Z,5.20
2018-05-14T20:52:22.535Z,4.90
2018-05-14T20:54:49.127Z,5.07
2018-05-14T20:57:15.727Z,5.82
2018-05-14T20:59:42.405Z,3.97
2018-05-14T21:02:08.916Z,4.25
2018-05-14T21:04:35.510Z,4.72
2018-05-14T21:07:02.111Z,4.05
2018-05-14T21:09:28.730Z,3.12
2018-05-14T21:11:55.316Z,3.50
2018-05-14T21:14:21.932Z,4.50
2018-05-14T21:16:48.526Z,4.03
2018-05-14T21:19:15.127Z,3.85
2018-05-14T21:21:41.730Z,3.22
2018-05-14T21:24:08.330Z,2.72
2018-05-14T21:26:34.917Z,4.07
2018-05-14T21:29:01.529Z,4.05
2018-05-14T21:31:28.108Z,4.70
2018-05-14T21:33:54.700Z,3.83
2018-05-14T21:36:21.434Z,5.12
2018-05-14T21:38:48.025Z,3.92
2018-05-14T21:41:14.627Z,5.78
2018-05-14T21:43:41.231Z,4.35
2018-05-14T21:46:07.837Z,3.75
2018-05-14T21:48:34.435Z,3.97
2018-05-14T21:51:01.020Z,4.43
2018-05-14T21:53:27.612Z,3.95
2018-05-14T21:55:54.214Z,3.92
2018-05-14T21:58:20.807Z,3.72
2018-05-14T22:00:48.177Z,3.90
2018-05-14T22:03:14.778Z,2.92
2018-05-14T22:05:47.336Z,3.75
2018-05-14T22:08:13.930Z,3.92
2018-05-14T22:10:40.533Z,4.28
2018-05-14T22:13:07.125Z,3.60
2018-05-14T22:15:33.726Z,3.40
2018-05-14T22:18:00.317Z,2.92
2018-05-14T22:20:26.916Z,3.92
2018-05-14T22:22:53.515Z,4.57
2018-05-14T22:25:20.119Z,3.25
2018-05-14T22:27:47.401Z,4.22
2018-05-14T22:30:13.994Z,4.85
2018-05-14T22:32:40.671Z,3.12
2018-05-14T22:35:07.192Z,4.10
2018-05-14T22:37:33.794Z,3.35
2018-05-14T22:40:00.380Z,4.00
2018-05-14T22:42:26.986Z,4.30
2018-05-14T22:44:53.576Z,3.42
2018-05-14T22:47:20.172Z,3.70
2018-05-14T22:49:46.768Z,5.30
2018-05-14T22:52:13.382Z,3.97
2018-05-14T22:54:39.974Z,3.15
2018-05-14T22:57:06.565Z,4.20
2018-05-14T22:59:33.171Z,3.05
2018-05-14T23:01:59.767Z,2.78
2018-05-14T23:04:26.374Z,4.47
2018-05-14T23:06:52.964Z,4.32
2018-05-14T23:09:19.561Z,3.85
2018-05-14T23:11:46.163Z,3.62
2018-05-14T23:14:12.744Z,3.90
2018-05-14T23:16:39.348Z,4.00
2018-05-14T23:19:05.940Z,5.15
2018-05-14T23:21:32.547Z,4.70
2018-05-14T23:23:59.146Z,3.50
2018-05-14T23:26:25.732Z,3.72
2018-05-14T23:28:52.334Z,3.65
2018-05-14T23:31:18.920Z,3.87
2018-05-14T23:33:45.526Z,4.10
2018-05-14T23:36:12.126Z,3.97
2018-05-14T23:38:38.723Z,3.70
2018-05-14T23:41:05.319Z,3.45
2018-05-14T23:43:31.900Z,3.78
2018-05-14T23:45:58.492Z,3.72
2018-05-14T23:48:25.084Z,3.53
2018-05-14T23:50:51.673Z,2.85
2018-05-14T23:53:18.256Z,3.60
2018-05-14T23:55:44.904Z,4.30
2018-05-14T23:58:11.433Z,3.17
